Terminal Aerodrome Forecast
Issued by NWS

Home | Current Version | Previous Version | Graphics & Text | Print | Product List | Glossary On
Versions: 1 2 3 4 5 6 7 8 9 10 11 12 13 14 15 16 17
000
FTUS43 KBIS 231731
TAFDIK
TAF
KDIK 231731Z 2318/2418 14012KT P6SM FEW025 SCT050
     FM232100 14014KT P6SM SCT025 BKN060
     FM232300 12014KT P6SM VCSH BKN025 OVC060
     FM240400 09011KT 5SM -RA BR BKN015 OVC025
     FM241000 05012KT 3SM -RA BR OVC012=

USA.gov is the U.S. government's official web portal to all federal, state and local government web resources and services.